Capitol Logistics 237


KRIV
March Air Reserve Base
Riverside, California, US
KIAD
Washington Dulles International Airport
Dulles, Virginia, US

Route Details

Aircraft Information
Primary: Boeing 767-300BDSF
Backup: Not Available
Route Data
Distance: 1970nm
Sched. Duration: 4h 20m
Avg. Duration: 4h 25m (+5m)
Times Flown: 3
Recm'd Route: TRM PKE J78 DRK J96 GUP J8 FTI MMB PER SGF J98 FAM J78 HVQ GIBBZ2
Planned Altitude: 33,000ft
Origin Wx: KRIV 272358Z AUTO 08005KT 10SM CLR 24/M07 A3016 RMK AO2 SLP210 T02401072 10260 20240 55004
Dest. Wx: KIAD 272352Z 29016G23KT 10SM FEW055 01/M11 A2996 RMK AO2 SLP148 T00111106 10044 20011 53033
Notes:

Financial History
Total Freight: 224,949lbs
Average Load: 74,983lbs/flt
Fuel Used: 130,663lbs
Avg. Fuel Used: 43,554lbs/flt
Fuel Expense: $90,157
Avg. Fuel Expense: $30,052
Avg. Fuel Cost: $0.69/lbs
Total Gross Income: $339,673
Pilot Pay: $687
Total Expenses: $36,841
Total Revenue: $209,552
Average Revenue: $113,224.33